Buyck, Minnesota
Current Conditions -  °F | °C
As of 8:13 PM on Saturday 22 Nov 2014 (Local Time) from KORB Reporting Station
Clear Clear  
Wind Chill: 26°   Ceiling: Unl
Heat Index: 32°   Visibility: 10mi
Dew Point: 27°   Wind: 6mph
Humidity: 80%   Direction: 140°SE
Pressure: 29.52"   Gusts: NA
Location:  48.1455°N, 92.8504°W
Report Text: KORB 230213Z AUTO 14005KT 10SM CLR 00/M03 A2952 RMK AO2
Loading
Personal Weather Stations






























Interactive Weather Map New forecast layout! Learn more

10-Day Weather Forecast

Advertisements
Track Severe Weather on mobile